NOAA Web Site Link Tides and Currents Home Page Transparent placeholder image

PORTS® Data Listing: 8519483 Bergen Point West Reach, NY

CO-OPS RAW PORTS DATA

************************      PRELIMINARY DATA      ************************** 

     THIS RAW DATA HAS NOT BEEN SUBJECT TO THE NATIONAL OCEAN SERVICE'S        
     QUALITY CONTROL OR QUALITY ASSURANCE PROCEDURES AND DOES NOT MEET         
     THE CRITERIA AND STANDARDS OF OFFICIAL NATIONAL OCEAN SERVICE             
     DATA.  IT IS RELEASED FOR LIMITED PUBLIC USE AS PRELIMINARY DATA TO       
     BE USED ONLY WITH APPROPRIATE CAUTION.                                    

************************      PRELIMINARY DATA      ************************** 


       CD   -   Calendar date
       T    -   Time
       TZ   -   Timezone
       PW   -   Predicted water level (feet above MLLW)
       OW   -   Observed water level (feet above MLLW)
       WS   -   Wind speed (knots)
       WD   -   Wind direction (degrees true)
       WG   -   Wind gust (knots)
       AT   -   Air temperature (degrees farenheit)
       WT   -   Water temperature (degrees farenheit)
       AP   -   Air pressure (millibars)
       SA   -   Salinty (PSU - Practical Salinity Units)
       SG   -   Specific gravity
       RH   -   Relative humidity
       AG   -   Air gap (feet)
       VI   -   Visibility (nautical miles)

       ** NOTE **
       A variable that has its data fields filled with "9"s, indicates that
       data was not collected for that sample period.
       **********


STATION NAME: Bergen Point West Reach (8519483)
****************************************************************************************************
    CD       T    TZ    PW     OW    WS   WD   WG    AT    WT    AP    SA    SG     RH    AG   VI
****************************************************************************************************
2019/08/23 21:48 EDT    1.41   1.66 -999 -999 -999  73.2  77.5 1017.0 -9.9 -9.999 -99.9 -99.99 -9.99
2019/08/23 21:54 EDT    1.44   1.71 -999 -999 -999  73.2  77.4 1017.0 -9.9 -9.999 -99.9 -99.99 -9.99
2019/08/23 22:00 EDT    1.46   1.78 -999 -999 -999  73.0  77.4 1017.1 -9.9 -9.999 -99.9 -99.99 -9.99
2019/08/23 22:06 EDT    1.50   1.84 -999 -999 -999  72.9  77.4 1017.1 -9.9 -9.999 -99.9 -99.99 -9.99
2019/08/23 22:12 EDT    1.53   1.93 -999 -999 -999  72.9  77.4 1017.1 -9.9 -9.999 -99.9 -99.99 -9.99
2019/08/23 22:18 EDT    1.58   2.02 -999 -999 -999  72.9  77.4 1017.2 -9.9 -9.999 -99.9 -99.99 -9.99
2019/08/23 22:24 EDT    1.62   2.11 -999 -999 -999  72.7  77.4 1017.3 -9.9 -9.999 -99.9 -99.99 -9.99
2019/08/23 22:30 EDT    1.68   2.19 -999 -999 -999  72.9  77.4 1017.3 -9.9 -9.999 -99.9 -99.99 -9.99
2019/08/23 22:36 EDT    1.73   2.29 -999 -999 -999  72.7  77.4 1017.4 -9.9 -9.999 -99.9 -99.99 -9.99
2019/08/23 22:42 EDT    1.79   2.38 -999 -999 -999  72.7  77.4 1017.5 -9.9 -9.999 -99.9 -99.99 -9.99
2019/08/23 22:48 EDT    1.86   2.47 -999 -999 -999  72.7  77.4 1017.5 -9.9 -9.999 -99.9 -99.99 -9.99
2019/08/23 22:54 EDT    1.93   2.58 -999 -999 -999  71.8  77.4 1017.7 -9.9 -9.999 -99.9 -99.99 -9.99
2019/08/23 23:00 EDT    2.01   2.66 -999 -999 -999  71.4  77.5 1017.8 -9.9 -9.999 -99.9 -99.99 -9.99
2019/08/23 23:06 EDT    2.09   2.79 -999 -999 -999  71.1  77.5 1017.9 -9.9 -9.999 -99.9 -99.99 -9.99
2019/08/23 23:12 EDT    2.18   2.89 -999 -999 -999  71.2  77.5 1018.0 -9.9 -9.999 -99.9 -99.99 -9.99
2019/08/23 23:18 EDT    2.27   3.01 -999 -999 -999  71.2  77.5 1018.0 -9.9 -9.999 -99.9 -99.99 -9.99
2019/08/23 23:24 EDT    2.36   3.10 -999 -999 -999  71.1  77.4 1018.0 -9.9 -9.999 -99.9 -99.99 -9.99
2019/08/23 23:30 EDT    2.45   3.19 -999 -999 -999  70.9  77.4 1018.1 -9.9 -9.999 -99.9 -99.99 -9.99
2019/08/23 23:36 EDT    2.55   3.26 -999 -999 -999  70.9  77.4 1018.1 -9.9 -9.999 -99.9 -99.99 -9.99
2019/08/23 23:42 EDT    2.65   3.32 -999 -999 -999  71.1  77.4 1018.2 -9.9 -9.999 -99.9 -99.99 -9.99
2019/08/23 23:48 EDT    2.75   3.41 -999 -999 -999  71.2  77.4 1018.2 -9.9 -9.999 -99.9 -99.99 -9.99
2019/08/23 23:54 EDT    2.85   3.48 -999 -999 -999  70.9  77.4 1018.2 -9.9 -9.999 -99.9 -99.99 -9.99
2019/08/24 00:00 EDT    2.96   3.54 -999 -999 -999  70.9  77.4 1018.2 -9.9 -9.999 -99.9 -99.99 -9.99
2019/08/24 00:06 EDT    3.06   3.62 -999 -999 -999  70.5  77.4 1018.2 -9.9 -9.999 -99.9 -99.99 -9.99
2019/08/24 00:12 EDT    3.16   3.70 -999 -999 -999  70.7  77.4 1018.3 -9.9 -9.999 -99.9 -99.99 -9.99
2019/08/24 00:18 EDT    3.26   3.75 -999 -999 -999  70.2  77.2 1018.2 -9.9 -9.999 -99.9 -99.99 -9.99
2019/08/24 00:24 EDT    3.36   3.82 -999 -999 -999  70.2  77.2 1018.2 -9.9 -9.999 -99.9 -99.99 -9.99
2019/08/24 00:30 EDT    3.46   3.87 -999 -999 -999  70.2  77.4 1018.2 -9.9 -9.999 -99.9 -99.99 -9.99
2019/08/24 00:36 EDT    3.55   3.92 -999 -999 -999  70.0  77.4 1018.4 -9.9 -9.999 -99.9 -99.99 -9.99
2019/08/24 00:42 EDT    3.64   3.98 -999 -999 -999  70.2  77.4 1018.3 -9.9 -9.999 -99.9 -99.99 -9.99
2019/08/24 00:48 EDT    3.73   4.02 -999 -999 -999  70.2  77.4 1018.3 -9.9 -9.999 -99.9 -99.99 -9.99
2019/08/24 00:54 EDT    3.81   4.07 -999 -999 -999  70.0  77.4 1018.3 -9.9 -9.999 -99.9 -99.99 -9.99
2019/08/24 01:00 EDT    3.89   4.09 -999 -999 -999  70.3  77.4 1018.3 -9.9 -9.999 -99.9 -99.99 -9.99
2019/08/24 01:06 EDT    3.96   4.12 -999 -999 -999  69.6  77.4 1018.3 -9.9 -9.999 -99.9 -99.99 -9.99
2019/08/24 01:12 EDT    4.03   4.15 -999 -999 -999  70.0  77.4 1018.3 -9.9 -9.999 -99.9 -99.99 -9.99
2019/08/24 01:18 EDT    4.09   4.18 -999 -999 -999  69.6  77.4 1018.3 -9.9 -9.999 -99.9 -99.99 -9.99
2019/08/24 01:24 EDT    4.15   4.22 -999 -999 -999  69.4  77.4 1018.2 -9.9 -9.999 -99.9 -99.99 -9.99
2019/08/24 01:30 EDT    4.21   4.25 -999 -999 -999  69.4  77.4 1018.2 -9.9 -9.999 -99.9 -99.99 -9.99
2019/08/24 01:36 EDT    4.26   4.27 -999 -999 -999  69.6  77.4 1018.2 -9.9 -9.999 -99.9 -99.99 -9.99
2019/08/24 01:42 EDT    4.30   4.27 -999 -999 -999  69.6  77.4 1018.2 -9.9 -9.999 -99.9 -99.99 -9.99
2019/08/24 01:48 EDT    4.34   4.29 -999 -999 -999  69.3  77.2 1018.2 -9.9 -9.999 -99.9 -99.99 -9.99
2019/08/24 01:54 EDT    4.38   4.32 -999 -999 -999  69.1  77.2 1018.2 -9.9 -9.999 -99.9 -99.99 -9.99
2019/08/24 02:00 EDT    4.41   4.33 -999 -999 -999  68.7  77.2 1018.2 -9.9 -9.999 -99.9 -99.99 -9.99
2019/08/24 02:06 EDT    4.43   4.36 -999 -999 -999  68.5  77.2 1018.2 -9.9 -9.999 -99.9 -99.99 -9.99
2019/08/24 02:12 EDT    4.45   4.38 -999 -999 -999  68.9  77.2 1018.2 -9.9 -9.999 -99.9 -99.99 -9.99
2019/08/24 02:18 EDT    4.46   4.35 -999 -999 -999  68.4  77.2 1018.2 -9.9 -9.999 -99.9 -99.99 -9.99
2019/08/24 02:24 EDT    4.48   4.37 -999 -999 -999  68.4  77.2 1018.3 -9.9 -9.999 -99.9 -99.99 -9.99
2019/08/24 02:30 EDT    4.48   4.43 -999 -999 -999  68.5  77.2 1018.2 -9.9 -9.999 -99.9 -99.99 -9.99
2019/08/24 02:36 EDT    4.48   4.43 -999 -999 -999  68.4  77.2 1018.3 -9.9 -9.999 -99.9 -99.99 -9.99
2019/08/24 02:42 EDT    4.48   4.43 -999 -999 -999  68.4  77.2 1018.4 -9.9 -9.999 -99.9 -99.99 -9.99
2019/08/24 02:48 EDT    4.48   4.44 -999 -999 -999  68.4  77.2 1018.4 -9.9 -9.999 -99.9 -99.99 -9.99
2019/08/24 02:54 EDT    4.47   4.46 -999 -999 -999  68.2  77.2 1018.4 -9.9 -9.999 -99.9 -99.99 -9.99
2019/08/24 03:00 EDT    4.45   4.48 -999 -999 -999  68.0  77.0 1018.4 -9.9 -9.999 -99.9 -99.99 -9.99
2019/08/24 03:06 EDT    4.44   4.51 -999 -999 -999  68.0  77.0 1018.5 -9.9 -9.999 -99.9 -99.99 -9.99
2019/08/24 03:12 EDT    4.42   4.52 -999 -999 -999  68.0  76.8 1018.5 -9.9 -9.999 -99.9 -99.99 -9.99
2019/08/24 03:18 EDT    4.39   4.54 -999 -999 -999  67.5  76.8 1018.5 -9.9 -9.999 -99.9 -99.99 -9.99
2019/08/24 03:24 EDT    4.37   4.54 -999 -999 -999  67.5  76.8 1018.6 -9.9 -9.999 -99.9 -99.99 -9.99
2019/08/24 03:30 EDT    4.33   4.54 -999 -999 -999  67.3  76.8 1018.7 -9.9 -9.999 -99.9 -99.99 -9.99
2019/08/24 03:36 EDT    4.30   4.52 -999 -999 -999  67.3  76.8 1018.7 -9.9 -9.999 -99.9 -99.99 -9.99
2019/08/24 03:42 EDT    4.26   4.50 -999 -999 -999  67.1  76.8 1018.8 -9.9 -9.999 -99.9 -99.99 -9.99
2019/08/24 03:48 EDT    4.22   4.48 -999 -999 -999  67.1  76.8 1018.9 -9.9 -9.999 -99.9 -99.99 -9.99
2019/08/24 03:54 EDT    4.17   4.48 -999 -999 -999  66.9  76.8 1018.9 -9.9 -9.999 -99.9 -99.99 -9.99
2019/08/24 04:00 EDT    4.12   4.46 -999 -999 -999  67.1  76.8 1018.9 -9.9 -9.999 -99.9 -99.99 -9.99
2019/08/24 04:06 EDT    4.07   4.42 -999 -999 -999  66.7  76.8 1018.9 -9.9 -9.999 -99.9 -99.99 -9.99
2019/08/24 04:12 EDT    4.01   4.38 -999 -999 -999  66.7  76.6 1019.0 -9.9 -9.999 -99.9 -99.99 -9.99
2019/08/24 04:18 EDT    3.95   4.34 -999 -999 -999  66.7  76.6 1019.0 -9.9 -9.999 -99.9 -99.99 -9.99
2019/08/24 04:24 EDT    3.89   4.27 -999 -999 -999  66.4  76.6 1019.1 -9.9 -9.999 -99.9 -99.99 -9.99
2019/08/24 04:30 EDT    3.82   4.24 -999 -999 -999  66.4  76.6 1019.2 -9.9 -9.999 -99.9 -99.99 -9.99
2019/08/24 04:36 EDT    3.75   4.20 -999 -999 -999  66.2  76.6 1019.2 -9.9 -9.999 -99.9 -99.99 -9.99
2019/08/24 04:42 EDT    3.67   4.13 -999 -999 -999  66.2  76.5 1019.4 -9.9 -9.999 -99.9 -99.99 -9.99
2019/08/24 04:48 EDT    3.59   4.06 -999 -999 -999  66.2  76.5 1019.5 -9.9 -9.999 -99.9 -99.99 -9.99
2019/08/24 04:54 EDT    3.51   4.01 -999 -999 -999  66.4  76.5 1019.5 -9.9 -9.999 -99.9 -99.99 -9.99
2019/08/24 05:00 EDT    3.43   3.91 -999 -999 -999  66.0  76.5 1019.5 -9.9 -9.999 -99.9 -99.99 -9.99
2019/08/24 05:06 EDT    3.34   3.90 -999 -999 -999  66.2  76.5 1019.6 -9.9 -9.999 -99.9 -99.99 -9.99
2019/08/24 05:12 EDT    3.25   3.83 -999 -999 -999  66.2  76.5 1019.6 -9.9 -9.999 -99.9 -99.99 -9.99
2019/08/24 05:18 EDT    3.16   3.76 -999 -999 -999  66.2  76.5 1019.6 -9.9 -9.999 -99.9 -99.99 -9.99
2019/08/24 05:24 EDT    3.06   3.67 -999 -999 -999  66.0  76.5 1019.7 -9.9 -9.999 -99.9 -99.99 -9.99
2019/08/24 05:30 EDT    2.96   3.62 -999 -999 -999  66.0  76.3 1019.7 -9.9 -9.999 -99.9 -99.99 -9.99
2019/08/24 05:36 EDT    2.87   3.50 -999 -999 -999  66.2  76.3 1019.8 -9.9 -9.999 -99.9 -99.99 -9.99
2019/08/24 05:42 EDT    2.77   3.41 -999 -999 -999  66.2  76.3 1019.8 -9.9 -9.999 -99.9 -99.99 -9.99
2019/08/24 05:48 EDT    2.67   3.33 -999 -999 -999  66.0  76.3 1020.0 -9.9 -9.999 -99.9 -99.99 -9.99
2019/08/24 05:54 EDT    2.57   3.26 -999 -999 -999  66.2  76.3 1020.0 -9.9 -9.999 -99.9 -99.99 -9.99
2019/08/24 06:00 EDT    2.47   3.17 -999 -999 -999  66.2  76.3 1020.1 -9.9 -9.999 -99.9 -99.99 -9.99
2019/08/24 06:06 EDT    2.37   3.06 -999 -999 -999  65.8  76.3 1020.2 -9.9 -9.999 -99.9 -99.99 -9.99
2019/08/24 06:12 EDT    2.28   2.97 -999 -999 -999  66.0  76.3 1020.3 -9.9 -9.999 -99.9 -99.99 -9.99
2019/08/24 06:18 EDT    2.18   2.85 -999 -999 -999  66.0  76.1 1020.4 -9.9 -9.999 -99.9 -99.99 -9.99
2019/08/24 06:24 EDT    2.09   2.76 -999 -999 -999  65.5  76.1 1020.6 -9.9 -9.999 -99.9 -99.99 -9.99
2019/08/24 06:30 EDT    2.00   2.64 -999 -999 -999  65.5  76.1 1020.7 -9.9 -9.999 -99.9 -99.99 -9.99
2019/08/24 06:36 EDT    1.91   2.53 -999 -999 -999  65.7  76.1 1020.7 -9.9 -9.999 -99.9 -99.99 -9.99
2019/08/24 06:42 EDT    1.82   2.43 -999 -999 -999  65.5  76.1 1020.8 -9.9 -9.999 -99.9 -99.99 -9.99
2019/08/24 06:48 EDT    1.74   2.33 -999 -999 -999  65.5  75.9 1020.9 -9.9 -9.999 -99.9 -99.99 -9.99
2019/08/24 06:54 EDT    1.67   2.24 -999 -999 -999  65.3  75.9 1021.0 -9.9 -9.999 -99.9 -99.99 -9.99
2019/08/24 07:00 EDT    1.59   2.15 -999 -999 -999  65.5  75.9 1021.1 -9.9 -9.999 -99.9 -99.99 -9.99
2019/08/24 07:06 EDT    1.52   2.06 -999 -999 -999  65.5  75.9 1021.1 -9.9 -9.999 -99.9 -99.99 -9.99
2019/08/24 07:12 EDT    1.46   1.97 -999 -999 -999  65.3  75.9 1021.1 -9.9 -9.999 -99.9 -99.99 -9.99
2019/08/24 07:18 EDT    1.40   1.89 -999 -999 -999  65.5  75.9 1021.2 -9.9 -9.999 -99.9 -99.99 -9.99
2019/08/24 07:24 EDT    1.34   1.82 -999 -999 -999  65.3  75.9 1021.2 -9.9 -9.999 -99.9 -99.99 -9.99
2019/08/24 07:30 EDT    1.29   1.77 -999 -999 -999  65.5  75.9 1021.2 -9.9 -9.999 -99.9 -99.99 -9.99
2019/08/24 07:36 EDT    1.24   1.71 -999 -999 -999  65.7  75.9 1021.3 -9.9 -9.999 -99.9 -99.99 -9.99
2019/08/24 07:42 EDT    1.20   1.67 -999 -999 -999  65.8  75.7 1021.3 -9.9 -9.999 -99.9 -99.99 -9.99
2019/08/24 07:48 EDT    1.16   1.61 -999 -999 -999  65.7  75.7 1021.4 -9.9 -9.999 -99.9 -99.99 -9.99
2019/08/24 07:54 EDT    1.12   1.55 -999 -999 -999  65.8  75.7 1021.5 -9.9 -9.999 -99.9 -99.99 -9.99
2019/08/24 08:00 EDT    1.09   1.51 -999 -999 -999  66.0  75.7 1021.5 -9.9 -9.999 -99.9 -99.99 -9.99
2019/08/24 08:06 EDT    1.06   1.45 -999 -999 -999  66.0  75.7 1021.6 -9.9 -9.999 -99.9 -99.99 -9.99
2019/08/24 08:12 EDT    1.04   1.39 -999 -999 -999  66.0  75.7 1021.7 -9.9 -9.999 -99.9 -99.99 -9.99
2019/08/24 08:18 EDT    1.02   1.37 -999 -999 -999  66.2  75.6 1021.6 -9.9 -9.999 -99.9 -99.99 -9.99
2019/08/24 08:24 EDT    1.00   1.33 -999 -999 -999  66.0  75.6 1021.7 -9.9 -9.999 -99.9 -99.99 -9.99
2019/08/24 08:30 EDT    0.99   1.30 -999 -999 -999  66.2  75.6 1021.8 -9.9 -9.999 -99.9 -99.99 -9.99
2019/08/24 08:36 EDT    0.98   1.28 -999 -999 -999  66.7  75.6 1021.8 -9.9 -9.999 -99.9 -99.99 -9.99
2019/08/24 08:42 EDT    0.97   1.25 -999 -999 -999  66.9  75.6 1021.8 -9.9 -9.999 -99.9 -99.99 -9.99
2019/08/24 08:48 EDT    0.97   1.23 -999 -999 -999  66.7  75.6 1021.8 -9.9 -9.999 -99.9 -99.99 -9.99
2019/08/24 08:54 EDT    0.97   1.19 -999 -999 -999  66.9  75.6 1021.8 -9.9 -9.999 -99.9 -99.99 -9.99
2019/08/24 09:00 EDT    0.97   1.19 -999 -999 -999  67.1  75.6 1021.9 -9.9 -9.999 -99.9 -99.99 -9.99
2019/08/24 09:06 EDT    0.97   1.19 -999 -999 -999  67.5  75.6 1021.9 -9.9 -9.999 -99.9 -99.99 -9.99
2019/08/24 09:12 EDT    0.98   1.21 -999 -999 -999  67.3  75.6 1022.0 -9.9 -9.999 -99.9 -99.99 -9.99
2019/08/24 09:18 EDT    0.99   1.23 -999 -999 -999  67.8  75.7 1022.0 -9.9 -9.999 -99.9 -99.99 -9.99
2019/08/24 09:24 EDT    1.01   1.26 -999 -999 -999  67.6  75.7 1022.1 -9.9 -9.999 -99.9 -99.99 -9.99
2019/08/24 09:30 EDT    1.03   1.28 -999 -999 -999  67.8  75.7 1022.1 -9.9 -9.999 -99.9 -99.99 -9.99
2019/08/24 09:36 EDT    1.05   1.32 -999 -999 -999  68.0  75.7 1022.1 -9.9 -9.999 -99.9 -99.99 -9.99
2019/08/24 09:42 EDT    1.07   1.38 -999 -999 -999  68.7  75.9 1022.1 -9.9 -9.999 -99.9 -99.99 -9.99
2019/08/24 09:48 EDT    1.10   1.43 -999 -999 -999  68.4  75.9 1022.1 -9.9 -9.999 -99.9 -99.99 -9.99
2019/08/24 09:54 EDT    1.13   1.50 -999 -999 -999  68.5  76.1 1022.2 -9.9 -9.999 -99.9 -99.99 -9.99
2019/08/24 10:00 EDT    1.17   1.57 -999 -999 -999  68.9  76.1 1022.2 -9.9 -9.999 -99.9 -99.99 -9.99
2019/08/24 10:06 EDT    1.21   1.66 -999 -999 -999  68.7  76.1 1022.2 -9.9 -9.999 -99.9 -99.99 -9.99
2019/08/24 10:12 EDT    1.26   1.76 -999 -999 -999  68.5  76.1 1022.2 -9.9 -9.999 -99.9 -99.99 -9.99
2019/08/24 10:18 EDT    1.31   1.86 -999 -999 -999  69.1  76.3 1022.1 -9.9 -9.999 -99.9 -99.99 -9.99
2019/08/24 10:24 EDT    1.37   1.97 -999 -999 -999  69.1  76.3 1022.2 -9.9 -9.999 -99.9 -99.99 -9.99
2019/08/24 10:30 EDT    1.43   2.09 -999 -999 -999  69.8  76.3 1022.2 -9.9 -9.999 -99.9 -99.99 -9.99
2019/08/24 10:36 EDT    1.50   2.20 -999 -999 -999  69.6  76.3 1022.1 -9.9 -9.999 -99.9 -99.99 -9.99
2019/08/24 10:42 EDT    1.57   2.32 -999 -999 -999  70.0  76.5 1022.1 -9.9 -9.999 -99.9 -99.99 -9.99
2019/08/24 10:48 EDT    1.65   2.43 -999 -999 -999  69.8  76.5 1022.0 -9.9 -9.999 -99.9 -99.99 -9.99
2019/08/24 10:54 EDT    1.74   2.57 -999 -999 -999  70.0  76.5 1022.0 -9.9 -9.999 -99.9 -99.99 -9.99
2019/08/24 11:00 EDT    1.83   2.69 -999 -999 -999  70.5  76.5 1022.0 -9.9 -9.999 -99.9 -99.99 -9.99
2019/08/24 11:06 EDT    1.92   2.83 -999 -999 -999  70.9  76.5 1022.0 -9.9 -9.999 -99.9 -99.99 -9.99
2019/08/24 11:12 EDT    2.02   2.94 -999 -999 -999  71.1  76.5 1022.0 -9.9 -9.999 -99.9 -99.99 -9.99
2019/08/24 11:18 EDT    2.13   3.06 -999 -999 -999  71.2  76.5 1021.9 -9.9 -9.999 -99.9 -99.99 -9.99
2019/08/24 11:24 EDT    2.24   3.16 -999 -999 -999  71.4  76.5 1021.9 -9.9 -9.999 -99.9 -99.99 -9.99
2019/08/24 11:30 EDT    2.35   3.26 -999 -999 -999  71.6  76.5 1021.9 -9.9 -9.999 -99.9 -99.99 -9.99
2019/08/24 11:36 EDT    2.47   3.36 -999 -999 -999  71.8  76.5 1021.9 -9.9 -9.999 -99.9 -99.99 -9.99
2019/08/24 11:42 EDT    2.59   3.47 -999 -999 -999  71.2  76.5 1021.9 -9.9 -9.999 -99.9 -99.99 -9.99
2019/08/24 11:48 EDT    2.72   3.58 -999 -999 -999  71.8  76.6 1021.9 -9.9 -9.999 -99.9 -99.99 -9.99
2019/08/24 11:54 EDT    2.85   3.71 -999 -999 -999  71.2  76.6 1021.9 -9.9 -9.999 -99.9 -99.99 -9.99
2019/08/24 12:00 EDT    2.98   3.78 -999 -999 -999  71.6  76.6 1021.9 -9.9 -9.999 -99.9 -99.99 -9.99
2019/08/24 12:06 EDT    3.11   3.91 -999 -999 -999  71.8  76.6 1021.8 -9.9 -9.999 -99.9 -99.99 -9.99
2019/08/24 12:12 EDT    3.24   4.01 -999 -999 -999  71.6  76.8 1021.8 -9.9 -9.999 -99.9 -99.99 -9.99
2019/08/24 12:18 EDT    3.37   4.11 -999 -999 -999  71.8  76.6 1021.7 -9.9 -9.999 -99.9 -99.99 -9.99
2019/08/24 12:24 EDT    3.50   4.19 -999 -999 -999  71.6  76.6 1021.7 -9.9 -9.999 -99.9 -99.99 -9.99
2019/08/24 12:30 EDT    3.64   4.33 -999 -999 -999  71.6  76.6 1021.7 -9.9 -9.999 -99.9 -99.99 -9.99
2019/08/24 12:36 EDT    3.77   4.42 -999 -999 -999  72.3  76.6 1021.7 -9.9 -9.999 -99.9 -99.99 -9.99
2019/08/24 12:42 EDT    3.89   4.52 -999 -999 -999  72.1  76.6 1021.7 -9.9 -9.999 -99.9 -99.99 -9.99
2019/08/24 12:48 EDT    4.02   4.63 -999 -999 -999  72.1  76.6 1021.6 -9.9 -9.999 -99.9 -99.99 -9.99
2019/08/24 12:54 EDT    4.14   4.72 -999 -999 -999  72.7  76.6 1021.6 -9.9 -9.999 -99.9 -99.99 -9.99
2019/08/24 13:00 EDT    4.25   4.80 -999 -999 -999  72.0  76.6 1021.6 -9.9 -9.999 -99.9 -99.99 -9.99
2019/08/24 13:06 EDT    4.37   4.87 -999 -999 -999  72.7  76.6 1021.6 -9.9 -9.999 -99.9 -99.99 -9.99
2019/08/24 13:12 EDT    4.47   4.94 -999 -999 -999  72.7  76.6 1021.6 -9.9 -9.999 -99.9 -99.99 -9.99
2019/08/24 13:18 EDT    4.58   5.02 -999 -999 -999  73.8  76.6 1021.6 -9.9 -9.999 -99.9 -99.99 -9.99
2019/08/24 13:24 EDT    4.67   5.05 -999 -999 -999  72.0  76.6 1021.7 -9.9 -9.999 -99.9 -99.99 -9.99
2019/08/24 13:30 EDT    4.77   5.11 -999 -999 -999  72.5  76.6 1021.6 -9.9 -9.999 -99.9 -99.99 -9.99
2019/08/24 13:36 EDT    4.85   5.15 -999 -999 -999  72.5  76.6 1021.7 -9.9 -9.999 -99.9 -99.99 -9.99
2019/08/24 13:42 EDT    4.93   5.22 -999 -999 -999  73.2  76.6 1021.7 -9.9 -9.999 -99.9 -99.99 -9.99
2019/08/24 13:48 EDT    5.00   5.25 -999 -999 -999  73.6  76.8 1021.7 -9.9 -9.999 -99.9 -99.99 -9.99
2019/08/24 13:54 EDT    5.07   5.30 -999 -999 -999  73.4  76.8 1021.7 -9.9 -9.999 -99.9 -99.99 -9.99
2019/08/24 14:00 EDT    5.13   5.32 -999 -999 -999  73.6  76.8 1021.7 -9.9 -9.999 -99.9 -99.99 -9.99
2019/08/24 14:06 EDT    5.18   5.34 -999 -999 -999  73.2  76.8 1021.7 -9.9 -9.999 -99.9 -99.99 -9.99
2019/08/24 14:12 EDT    5.22   5.37 -999 -999 -999  73.0  76.8 1021.7 -9.9 -9.999 -99.9 -99.99 -9.99
2019/08/24 14:18 EDT    5.26   5.41 -999 -999 -999  73.2  77.0 1021.7 -9.9 -9.999 -99.9 -99.99 -9.99
2019/08/24 14:24 EDT    5.30   5.41 -999 -999 -999  72.7  77.0 1021.7 -9.9 -9.999 -99.9 -99.99 -9.99
2019/08/24 14:30 EDT    5.32   5.44 -999 -999 -999  72.9  77.0 1021.7 -9.9 -9.999 -99.9 -99.99 -9.99
2019/08/24 14:36 EDT    5.35   5.46 -999 -999 -999  72.9  77.0 1021.6 -9.9 -9.999 -99.9 -99.99 -9.99
2019/08/24 14:42 EDT    5.36   5.49 -999 -999 -999  73.6  77.0 1021.6 -9.9 -9.999 -99.9 -99.99 -9.99
2019/08/24 14:48 EDT    5.37   5.48 -999 -999 -999  73.9  77.0 1021.6 -9.9 -9.999 -99.9 -99.99 -9.99
2019/08/24 14:54 EDT    5.38   5.49 -999 -999 -999  73.9  77.0 1021.6 -9.9 -9.999 -99.9 -99.99 -9.99
2019/08/24 15:00 EDT    5.38   5.49 -999 -999 -999  74.1  77.0 1021.5 -9.9 -9.999 -99.9 -99.99 -9.99
2019/08/24 15:06 EDT    5.37   5.51 -999 -999 -999  73.6  77.0 1021.4 -9.9 -9.999 -99.9 -99.99 -9.99
2019/08/24 15:12 EDT    5.36   5.52 -999 -999 -999  74.1  77.0 1021.4 -9.9 -9.999 -99.9 -99.99 -9.99
2019/08/24 15:18 EDT    5.35   5.53 -999 -999 -999  75.0  77.0 1021.3 -9.9 -9.999 -99.9 -99.99 -9.99
2019/08/24 15:24 EDT    5.33   5.51 -999 -999 -999  73.9  77.0 1021.3 -9.9 -9.999 -99.9 -99.99 -9.99
2019/08/24 15:30 EDT    5.31   5.49 -999 -999 -999  73.6  76.8 1021.2 -9.9 -9.999 -99.9 -99.99 -9.99
2019/08/24 15:36 EDT    5.29   5.49 -999 -999 -999  73.8  76.8 1021.2 -9.9 -9.999 -99.9 -99.99 -9.99
2019/08/24 15:42 EDT    5.26 -99.99 -999 -999 -999 -99.9 -99.9 -999.9 -9.9 -9.999 -99.9 -99.99 -9.99
2019/08/24 15:48 EDT    5.22 -99.99 -999 -999 -999 -99.9 -99.9 -999.9 -9.9 -9.999 -99.9 -99.99 -9.99
2019/08/24 15:54 EDT    5.19 -99.99 -999 -999 -999 -99.9 -99.9 -999.9 -9.9 -9.999 -99.9 -99.99 -9.99
2019/08/24 16:00 EDT    5.14 -99.99 -999 -999 -999 -99.9 -99.9 -999.9 -9.9 -9.999 -99.9 -99.99 -9.99
2019/08/24 16:06 EDT    5.10 -99.99 -999 -999 -999 -99.9 -99.9 -999.9 -9.9 -9.999 -99.9 -99.99 -9.99
2019/08/24 16:12 EDT    5.05 -99.99 -999 -999 -999 -99.9 -99.9 -999.9 -9.9 -9.999 -99.9 -99.99 -9.99
2019/08/24 16:18 EDT    5.00 -99.99 -999 -999 -999 -99.9 -99.9 -999.9 -9.9 -9.999 -99.9 -99.99 -9.99
2019/08/24 16:24 EDT    4.95 -99.99 -999 -999 -999 -99.9 -99.9 -999.9 -9.9 -9.999 -99.9 -99.99 -9.99
2019/08/24 16:30 EDT    4.89 -99.99 -999 -999 -999 -99.9 -99.9 -999.9 -9.9 -9.999 -99.9 -99.99 -9.99
2019/08/24 16:36 EDT    4.83 -99.99 -999 -999 -999 -99.9 -99.9 -999.9 -9.9 -9.999 -99.9 -99.99 -9.99
2019/08/24 16:42 EDT    4.76 -99.99 -999 -999 -999 -99.9 -99.9 -999.9 -9.9 -9.999 -99.9 -99.99 -9.99
2019/08/24 16:48 EDT    4.70 -99.99 -999 -999 -999 -99.9 -99.9 -999.9 -9.9 -9.999 -99.9 -99.99 -9.99
2019/08/24 16:54 EDT    4.63 -99.99 -999 -999 -999 -99.9 -99.9 -999.9 -9.9 -9.999 -99.9 -99.99 -9.99
2019/08/24 17:00 EDT    4.55 -99.99 -999 -999 -999 -99.9 -99.9 -999.9 -9.9 -9.999 -99.9 -99.99 -9.99
2019/08/24 17:06 EDT    4.47 -99.99 -999 -999 -999 -99.9 -99.9 -999.9 -9.9 -9.999 -99.9 -99.99 -9.99
2019/08/24 17:12 EDT    4.39 -99.99 -999 -999 -999 -99.9 -99.9 -999.9 -9.9 -9.999 -99.9 -99.99 -9.99
2019/08/24 17:18 EDT    4.31 -99.99 -999 -999 -999 -99.9 -99.9 -999.9 -9.9 -9.999 -99.9 -99.99 -9.99
2019/08/24 17:24 EDT    4.23 -99.99 -999 -999 -999 -99.9 -99.9 -999.9 -9.9 -9.999 -99.9 -99.99 -9.99
2019/08/24 17:30 EDT    4.14 -99.99 -999 -999 -999 -99.9 -99.9 -999.9 -9.9 -9.999 -99.9 -99.99 -9.99
2019/08/24 17:36 EDT    4.05 -99.99 -999 -999 -999 -99.9 -99.9 -999.9 -9.9 -9.999 -99.9 -99.99 -9.99
2019/08/24 17:42 EDT    3.95 -99.99 -999 -999 -999 -99.9 -99.9 -999.9 -9.9 -9.999 -99.9 -99.99 -9.99
2019/08/24 17:48 EDT    3.86 -99.99 -999 -999 -999 -99.9 -99.9 -999.9 -9.9 -9.999 -99.9 -99.99 -9.99
2019/08/24 17:54 EDT    3.76 -99.99 -999 -999 -999 -99.9 -99.9 -999.9 -9.9 -9.999 -99.9 -99.99 -9.99
2019/08/24 18:00 EDT    3.67 -99.99 -999 -999 -999 -99.9 -99.9 -999.9 -9.9 -9.999 -99.9 -99.99 -9.99
2019/08/24 18:06 EDT    3.57 -99.99 -999 -999 -999 -99.9 -99.9 -999.9 -9.9 -9.999 -99.9 -99.99 -9.99
2019/08/24 18:12 EDT    3.47 -99.99 -999 -999 -999 -99.9 -99.9 -999.9 -9.9 -9.999 -99.9 -99.99 -9.99
2019/08/24 18:18 EDT    3.37 -99.99 -999 -999 -999 -99.9 -99.9 -999.9 -9.9 -9.999 -99.9 -99.99 -9.99
2019/08/24 18:24 EDT    3.28 -99.99 -999 -999 -999 -99.9 -99.9 -999.9 -9.9 -9.999 -99.9 -99.99 -9.99
2019/08/24 18:30 EDT    3.18 -99.99 -999 -999 -999 -99.9 -99.9 -999.9 -9.9 -9.999 -99.9 -99.99 -9.99
2019/08/24 18:36 EDT    3.08 -99.99 -999 -999 -999 -99.9 -99.9 -999.9 -9.9 -9.999 -99.9 -99.99 -9.99
2019/08/24 18:42 EDT    2.99 -99.99 -999 -999 -999 -99.9 -99.9 -999.9 -9.9 -9.999 -99.9 -99.99 -9.99
2019/08/24 18:48 EDT    2.89 -99.99 -999 -999 -999 -99.9 -99.9 -999.9 -9.9 -9.999 -99.9 -99.99 -9.99
2019/08/24 18:54 EDT    2.80 -99.99 -999 -999 -999 -99.9 -99.9 -999.9 -9.9 -9.999 -99.9 -99.99 -9.99
2019/08/24 19:00 EDT    2.71 -99.99 -999 -999 -999 -99.9 -99.9 -999.9 -9.9 -9.999 -99.9 -99.99 -9.99
2019/08/24 19:06 EDT    2.63 -99.99 -999 -999 -999 -99.9 -99.9 -999.9 -9.9 -9.999 -99.9 -99.99 -9.99
2019/08/24 19:12 EDT    2.54 -99.99 -999 -999 -999 -99.9 -99.9 -999.9 -9.9 -9.999 -99.9 -99.99 -9.99
2019/08/24 19:18 EDT    2.46 -99.99 -999 -999 -999 -99.9 -99.9 -999.9 -9.9 -9.999 -99.9 -99.99 -9.99
2019/08/24 19:24 EDT    2.38 -99.99 -999 -999 -999 -99.9 -99.9 -999.9 -9.9 -9.999 -99.9 -99.99 -9.99
2019/08/24 19:30 EDT    2.30 -99.99 -999 -999 -999 -99.9 -99.9 -999.9 -9.9 -9.999 -99.9 -99.99 -9.99
2019/08/24 19:36 EDT    2.23 -99.99 -999 -999 -999 -99.9 -99.9 -999.9 -9.9 -9.999 -99.9 -99.99 -9.99
2019/08/24 19:42 EDT    2.16 -99.99 -999 -999 -999 -99.9 -99.9 -999.9 -9.9 -9.999 -99.9 -99.99 -9.99
2019/08/24 19:48 EDT    2.09 -99.99 -999 -999 -999 -99.9 -99.9 -999.9 -9.9 -9.999 -99.9 -99.99 -9.99
2019/08/24 19:54 EDT    2.03 -99.99 -999 -999 -999 -99.9 -99.9 -999.9 -9.9 -9.999 -99.9 -99.99 -9.99
2019/08/24 20:00 EDT    1.97 -99.99 -999 -999 -999 -99.9 -99.9 -999.9 -9.9 -9.999 -99.9 -99.99 -9.99
2019/08/24 20:06 EDT    1.91 -99.99 -999 -999 -999 -99.9 -99.9 -999.9 -9.9 -9.999 -99.9 -99.99 -9.99
2019/08/24 20:12 EDT    1.86 -99.99 -999 -999 -999 -99.9 -99.9 -999.9 -9.9 -9.999 -99.9 -99.99 -9.99
2019/08/24 20:18 EDT    1.80 -99.99 -999 -999 -999 -99.9 -99.9 -999.9 -9.9 -9.999 -99.9 -99.99 -9.99
2019/08/24 20:24 EDT    1.75 -99.99 -999 -999 -999 -99.9 -99.9 -999.9 -9.9 -9.999 -99.9 -99.99 -9.99
2019/08/24 20:30 EDT    1.70 -99.99 -999 -999 -999 -99.9 -99.9 -999.9 -9.9 -9.999 -99.9 -99.99 -9.99
2019/08/24 20:36 EDT    1.66 -99.99 -999 -999 -999 -99.9 -99.9 -999.9 -9.9 -9.999 -99.9 -99.99 -9.99
2019/08/24 20:42 EDT    1.61 -99.99 -999 -999 -999 -99.9 -99.9 -999.9 -9.9 -9.999 -99.9 -99.99 -9.99
2019/08/24 20:48 EDT    1.57 -99.99 -999 -999 -999 -99.9 -99.9 -999.9 -9.9 -9.999 -99.9 -99.99 -9.99
2019/08/24 20:54 EDT    1.53 -99.99 -999 -999 -999 -99.9 -99.9 -999.9 -9.9 -9.999 -99.9 -99.99 -9.99
2019/08/24 21:00 EDT    1.49 -99.99 -999 -999 -999 -99.9 -99.9 -999.9 -9.9 -9.999 -99.9 -99.99 -9.99
2019/08/24 21:06 EDT    1.46 -99.99 -999 -999 -999 -99.9 -99.9 -999.9 -9.9 -9.999 -99.9 -99.99 -9.99
2019/08/24 21:12 EDT    1.42 -99.99 -999 -999 -999 -99.9 -99.9 -999.9 -9.9 -9.999 -99.9 -99.99 -9.99
2019/08/24 21:18 EDT    1.39 -99.99 -999 -999 -999 -99.9 -99.9 -999.9 -9.9 -9.999 -99.9 -99.99 -9.99
2019/08/24 21:24 EDT    1.36 -99.99 -999 -999 -999 -99.9 -99.9 -999.9 -9.9 -9.999 -99.9 -99.99 -9.99
2019/08/24 21:30 EDT    1.33 -99.99 -999 -999 -999 -99.9 -99.9 -999.9 -9.9 -9.999 -99.9 -99.99 -9.99
2019/08/24 21:36 EDT    1.30 -99.99 -999 -999 -999 -99.9 -99.9 -999.9 -9.9 -9.999 -99.9 -99.99 -9.99
2019/08/24 21:42 EDT    1.27 -99.99 -999 -999 -999 -99.9 -99.9 -999.9 -9.9 -9.999 -99.9 -99.99 -9.99
2019/08/24 21:48 EDT    1.25 -99.99 -999 -999 -999 -99.9 -99.9 -999.9 -9.9 -9.999 -99.9 -99.99 -9.99

Revised: 08/08/2018
NOAA / National Ocean Service
Web site owner: Center for Operational Oceanographic Products and Services